createdAt,value
2017-11-17T00:02:06.726Z,23.53
2017-11-17T00:04:34.216Z,23.83
2017-11-17T00:07:01.752Z,24.57
2017-11-17T00:09:29.265Z,24.80
2017-11-17T00:11:57.559Z,24.03
2017-11-17T00:14:25.054Z,24.63
2017-11-17T00:16:52.541Z,25.40
2017-11-17T00:19:21.339Z,26.10
2017-11-17T00:21:49.623Z,25.10
2017-11-17T00:24:17.939Z,23.83
2017-11-17T00:26:45.442Z,24.53
2017-11-17T00:29:13.705Z,25.47
2017-11-17T00:31:41.987Z,23.60
2017-11-17T00:34:09.492Z,23.53
2017-11-17T00:36:37.056Z,22.63
2017-11-17T00:39:04.563Z,23.67
2017-11-17T00:41:32.053Z,23.70
2017-11-17T00:43:59.585Z,24.48
2017-11-17T00:46:27.845Z,25.67
2017-11-17T00:48:55.324Z,24.70
2017-11-17T00:51:23.626Z,26.05
2017-11-17T00:53:51.645Z,26.87
2017-11-17T00:56:19.181Z,27.52
2017-11-17T00:58:46.677Z,25.93
2017-11-17T01:01:14.288Z,27.42
2017-11-17T01:03:41.790Z,28.13
2017-11-17T01:06:10.066Z,28.27
2017-11-17T01:08:37.622Z,26.73
2017-11-17T01:11:05.244Z,29.05
2017-11-17T01:13:32.782Z,27.87
2017-11-17T01:16:00.334Z,28.17
2017-11-17T01:18:27.894Z,28.73
2017-11-17T01:20:55.438Z,27.58
2017-11-17T01:23:23.707Z,27.45
2017-11-17T01:25:51.285Z,27.80
2017-11-17T01:28:19.553Z,28.70
2017-11-17T01:30:47.828Z,28.25
2017-11-17T01:33:16.214Z,28.05
2017-11-17T01:35:44.468Z,29.25
2017-11-17T01:38:12.729Z,27.80
2017-11-17T01:40:40.254Z,29.92
2017-11-17T01:43:07.757Z,29.80
2017-11-17T01:45:35.343Z,29.60
2017-11-17T01:48:03.613Z,30.52
2017-11-17T01:50:32.865Z,29.30
2017-11-17T01:53:00.378Z,28.52
2017-11-17T01:55:28.665Z,29.50
2017-11-17T01:57:56.173Z,28.60
2017-11-17T02:00:23.776Z,28.48
2017-11-17T02:02:51.328Z,29.53
2017-11-17T02:05:19.613Z,28.73
2017-11-17T02:07:47.853Z,28.23
2017-11-17T02:10:15.374Z,28.97
2017-11-17T02:12:42.863Z,29.90
2017-11-17T02:15:10.360Z,29.92
2017-11-17T02:17:37.881Z,30.15
2017-11-17T02:20:05.399Z,30.17
2017-11-17T02:22:32.927Z,30.63
2017-11-17T02:25:01.299Z,29.08
2017-11-17T02:27:28.797Z,29.27
2017-11-17T02:29:56.284Z,31.10
2017-11-17T02:32:24.616Z,31.83
2017-11-17T02:34:52.125Z,30.98
2017-11-17T02:37:19.619Z,31.47
2017-11-17T02:39:47.882Z,32.37
2017-11-17T02:42:16.570Z,32.10
2017-11-17T02:44:44.819Z,31.45
2017-11-17T02:47:12.449Z,34.08
2017-11-17T02:49:39.945Z,36.13
2017-11-17T02:52:07.570Z,33.03
2017-11-17T02:54:35.625Z,34.53
2017-11-17T02:57:03.205Z,33.80
2017-11-17T02:59:30.741Z,34.27
2017-11-17T03:01:58.220Z,33.67
2017-11-17T03:04:25.764Z,34.17
2017-11-17T03:06:53.304Z,33.65
2017-11-17T03:09:20.847Z,33.63
2017-11-17T03:11:48.331Z,33.27
2017-11-17T03:14:16.586Z,35.07
2017-11-17T03:16:44.861Z,33.23
2017-11-17T03:19:12.969Z,34.07
2017-11-17T03:21:40.483Z,34.20
2017-11-17T03:24:08.060Z,35.40
2017-11-17T03:26:36.345Z,36.17
2017-11-17T03:29:04.612Z,33.60
2017-11-17T03:31:32.868Z,34.73
2017-11-17T03:34:00.358Z,37.10
2017-11-17T03:36:27.907Z,34.00
2017-11-17T03:38:56.162Z,35.57
2017-11-17T03:41:23.658Z,36.37
2017-11-17T03:43:51.213Z,38.50
2017-11-17T03:46:18.707Z,36.33
2017-11-17T03:48:46.192Z,34.60
2017-11-17T03:51:13.686Z,37.47
2017-11-17T03:53:41.233Z,37.03
2017-11-17T03:56:09.496Z,36.75
2017-11-17T03:58:37.005Z,36.13
2017-11-17T04:01:04.508Z,37.13
2017-11-17T04:03:32.088Z,37.27
2017-11-17T04:05:59.643Z,36.40
2017-11-17T04:08:27.896Z,35.37
2017-11-17T04:10:55.393Z,36.50
2017-11-17T04:13:22.874Z,34.63
2017-11-17T04:15:50.405Z,35.67
2017-11-17T04:18:17.904Z,32.87
2017-11-17T04:20:45.405Z,34.53
2017-11-17T04:23:13.662Z,34.17
2017-11-17T04:25:41.165Z,33.50
2017-11-17T04:28:08.656Z,32.67
2017-11-17T04:30:36.214Z,33.67
2017-11-17T04:33:03.707Z,32.83
2017-11-17T04:35:31.968Z,34.53
2017-11-17T04:37:59.478Z,31.97
2017-11-17T04:40:26.964Z,32.53
2017-11-17T04:42:54.464Z,31.07
2017-11-17T04:45:22.730Z,32.33
2017-11-17T04:47:50.227Z,31.63
2017-11-17T04:50:17.728Z,29.67
2017-11-17T04:52:45.220Z,32.07
2017-11-17T04:55:13.552Z,31.77
2017-11-17T04:57:41.125Z,32.67
2017-11-17T05:00:08.618Z,32.57
2017-11-17T05:02:36.881Z,30.10
2017-11-17T05:05:05.132Z,30.40
2017-11-17T05:07:32.649Z,30.07
2017-11-17T05:10:00.222Z,30.70
2017-11-17T05:12:27.782Z,29.60
2017-11-17T05:14:55.269Z,29.60
2017-11-17T05:17:22.800Z,32.07
2017-11-17T05:19:50.304Z,30.13
2017-11-17T05:22:17.813Z,30.20
2017-11-17T05:24:45.313Z,28.97
2017-11-17T05:27:12.859Z,29.20
2017-11-17T05:29:40.348Z,29.57
2017-11-17T05:32:08.598Z,28.30
2017-11-17T05:34:36.096Z,26.43
2017-11-17T05:37:03.573Z,27.20
2017-11-17T05:39:31.078Z,25.43
2017-11-17T05:41:58.589Z,25.83
2017-11-17T05:44:26.857Z,25.03
2017-11-17T05:46:54.393Z,24.30
2017-11-17T05:49:22.652Z,28.80
2017-11-17T05:51:50.229Z,25.77
2017-11-17T05:54:18.493Z,24.33
2017-11-17T05:56:45.978Z,22.67
2017-11-17T05:59:13.461Z,22.67
2017-11-17T06:01:40.979Z,24.27
2017-11-17T06:04:09.241Z,21.07
2017-11-17T06:06:36.772Z,22.73
2017-11-17T06:09:04.236Z,22.40
2017-11-17T06:11:31.762Z,20.50
2017-11-17T06:13:59.254Z,21.80
2017-11-17T06:16:26.738Z,20.37
2017-11-17T06:18:55.014Z,21.27
2017-11-17T06:21:23.277Z,20.83
2017-11-17T06:23:50.782Z,19.60
2017-11-17T06:26:18.267Z,19.67
2017-11-17T06:28:45.752Z,20.53
2017-11-17T06:31:13.244Z,19.60
2017-11-17T06:33:40.775Z,19.60
2017-11-17T06:36:08.269Z,18.90
2017-11-17T06:38:35.747Z,19.47
2017-11-17T06:41:03.253Z,18.83
2017-11-17T06:43:31.528Z,19.50
2017-11-17T06:45:59.806Z,18.50
2017-11-17T06:48:28.074Z,17.93
2017-11-17T06:50:55.596Z,19.70
2017-11-17T06:53:23.085Z,15.73
2017-11-17T06:55:50.568Z,16.73
2017-11-17T06:58:18.841Z,17.73
2017-11-17T07:00:47.104Z,18.03
2017-11-17T07:03:14.594Z,18.80
2017-11-17T07:05:42.085Z,17.27
2017-11-17T07:08:09.605Z,16.77
2017-11-17T07:10:37.092Z,16.93
2017-11-17T07:13:04.590Z,18.70
2017-11-17T07:15:32.091Z,18.90
2017-11-17T07:17:59.656Z,16.73
2017-11-17T07:20:27.149Z,16.23
2017-11-17T07:22:54.641Z,17.07
2017-11-17T07:25:22.905Z,17.13
2017-11-17T07:27:51.156Z,17.60
2017-11-17T07:30:18.652Z,17.03
2017-11-17T07:32:46.912Z,17.50
2017-11-17T07:35:15.196Z,17.90
2017-11-17T07:37:43.473Z,17.63
2017-11-17T07:40:11.725Z,17.77
2017-11-17T07:42:39.227Z,17.27
2017-11-17T07:45:06.707Z,20.30
2017-11-17T07:47:34.213Z,20.10
2017-11-17T07:50:02.472Z,18.80
2017-11-17T07:52:29.953Z,18.23
2017-11-17T07:54:58.200Z,18.17
2017-11-17T07:57:25.680Z,19.47
2017-11-17T07:59:53.974Z,18.50
2017-11-17T08:02:22.233Z,18.37
2017-11-17T08:04:50.508Z,19.07
2017-11-17T08:07:18.764Z,18.67
2017-11-17T08:09:46.267Z,18.90
2017-11-17T08:12:13.751Z,19.17
2017-11-17T08:14:41.257Z,20.17
2017-11-17T08:17:25.203Z,19.73
2017-11-17T08:19:53.470Z,20.97
2017-11-17T08:22:20.989Z,20.50
2017-11-17T08:24:48.468Z,21.57
2017-11-17T08:27:15.973Z,21.37
2017-11-17T08:29:44.229Z,20.60
2017-11-17T08:32:12.502Z,23.60
2017-11-17T08:34:40.772Z,24.50
2017-11-17T08:37:08.252Z,23.60
2017-11-17T08:39:36.528Z,21.53
2017-11-17T08:42:04.787Z,21.03
2017-11-17T08:44:32.293Z,21.30
2017-11-17T08:46:59.871Z,21.77
2017-11-17T08:49:27.390Z,21.27
2017-11-17T08:51:54.962Z,20.90
2017-11-17T08:54:22.462Z,21.73
2017-11-17T08:56:49.956Z,21.87
2017-11-17T08:59:18.216Z,22.20
2017-11-17T09:01:45.709Z,21.63
2017-11-17T09:04:13.205Z,21.67
2017-11-17T09:06:40.695Z,21.93
2017-11-17T09:09:08.944Z,21.60
2017-11-17T09:11:36.448Z,22.40
2017-11-17T09:14:03.937Z,21.47
2017-11-17T09:16:31.436Z,21.23
2017-11-17T09:18:58.931Z,21.50
2017-11-17T09:21:26.432Z,22.33
2017-11-17T09:23:53.937Z,21.27
2017-11-17T09:26:21.448Z,21.33
2017-11-17T09:28:48.948Z,22.03
2017-11-17T09:31:16.645Z,21.77
2017-11-17T09:33:44.196Z,23.33
2017-11-17T09:36:11.709Z,22.67
2017-11-17T09:38:39.977Z,21.17
2017-11-17T09:41:07.489Z,22.60
2017-11-17T09:43:34.992Z,20.40
2017-11-17T09:46:02.491Z,21.50
2017-11-17T09:48:30.037Z,20.57
2017-11-17T09:50:58.309Z,19.27
2017-11-17T09:53:27.394Z,19.27
2017-11-17T09:55:55.705Z,19.90
2017-11-17T09:58:23.193Z,19.27
2017-11-17T10:00:50.701Z,17.47
2017-11-17T10:03:18.960Z,18.50
2017-11-17T10:05:46.462Z,16.60
2017-11-17T10:08:14.096Z,18.70
2017-11-17T10:10:42.355Z,17.00
2017-11-17T10:13:10.656Z,17.50
2017-11-17T10:15:38.940Z,16.53
2017-11-17T10:18:07.345Z,14.90
2017-11-17T10:20:34.957Z,14.43
2017-11-17T10:23:03.209Z,15.87
2017-11-17T10:25:30.732Z,14.73
2017-11-17T10:27:58.277Z,14.70
2017-11-17T10:30:25.775Z,15.07
2017-11-17T10:32:53.281Z,14.03
2017-11-17T10:35:21.562Z,15.43
2017-11-17T10:37:49.055Z,15.10
2017-11-17T10:40:16.578Z,14.30
2017-11-17T10:42:44.073Z,14.33
2017-11-17T10:45:11.594Z,14.23
2017-11-17T10:47:39.340Z,14.57
2017-11-17T10:50:07.595Z,13.73
2017-11-17T10:52:35.187Z,14.63
2017-11-17T10:55:03.473Z,12.07
2017-11-17T10:57:31.006Z,11.47
2017-11-17T10:59:58.581Z,12.17
2017-11-17T11:02:26.856Z,11.63
2017-11-17T11:04:54.364Z,10.23
2017-11-17T11:07:21.853Z,8.73
2017-11-17T11:09:50.143Z,9.27
2017-11-17T11:12:17.633Z,8.40
2017-11-17T11:14:45.126Z,6.67
2017-11-17T11:17:12.648Z,6.80
2017-11-17T11:19:40.218Z,5.90
2017-11-17T11:22:07.747Z,6.47
2017-11-17T11:24:35.302Z,6.63
2017-11-17T11:27:03.603Z,6.50
2017-11-17T11:29:31.152Z,6.07
2017-11-17T11:31:58.647Z,6.10
2017-11-17T11:34:26.133Z,6.13
2017-11-17T11:36:53.701Z,5.90
2017-11-17T11:39:21.947Z,5.10
2017-11-17T11:41:49.544Z,5.10
2017-11-17T11:44:17.793Z,4.70
2017-11-17T11:46:45.277Z,5.27
2017-11-17T11:49:13.536Z,4.43
2017-11-17T11:51:41.113Z,4.50
2017-11-17T11:54:09.420Z,4.40
2017-11-17T11:56:36.965Z,5.13
2017-11-17T11:59:04.517Z,5.10
2017-11-17T12:01:32.011Z,5.10
2017-11-17T12:03:59.546Z,8.63
2017-11-17T12:06:27.138Z,6.67
2017-11-17T12:08:54.718Z,5.00
2017-11-17T12:11:22.209Z,4.87
2017-11-17T12:13:49.753Z,4.40
2017-11-17T12:16:18.009Z,4.03
2017-11-17T12:18:45.598Z,3.80
2017-11-17T12:21:13.859Z,3.73
2017-11-17T12:23:41.357Z,4.30
2017-11-17T12:26:08.840Z,4.07
2017-11-17T12:28:36.388Z,3.67
2017-11-17T12:31:03.884Z,3.80
2017-11-17T12:33:31.408Z,4.23
2017-11-17T12:35:58.910Z,3.73
2017-11-17T12:38:26.526Z,4.43
2017-11-17T12:40:54.041Z,4.20
2017-11-17T12:43:22.370Z,4.10
2017-11-17T12:45:50.903Z,3.43
2017-11-17T12:48:18.154Z,3.70
2017-11-17T12:50:46.427Z,3.53
2017-11-17T12:53:14.669Z,3.37
2017-11-17T12:55:42.265Z,3.20
2017-11-17T12:58:10.511Z,3.57
2017-11-17T13:00:38.383Z,3.80
2017-11-17T13:03:05.964Z,4.47
2017-11-17T13:05:34.328Z,4.07
2017-11-17T13:08:01.905Z,3.83
2017-11-17T13:10:30.157Z,3.60
2017-11-17T13:12:57.735Z,4.60
2017-11-17T13:15:25.985Z,3.60
2017-11-17T13:17:53.577Z,3.93
2017-11-17T13:20:21.829Z,4.33
2017-11-17T13:22:49.408Z,3.60
2017-11-17T13:25:17.655Z,3.57
2017-11-17T13:27:45.143Z,3.90
2017-11-17T13:30:13.388Z,5.23
2017-11-17T13:32:40.864Z,4.80
2017-11-17T13:35:08.480Z,3.63
2017-11-17T13:37:35.963Z,4.33
2017-11-17T13:40:03.444Z,3.63
2017-11-17T13:42:31.046Z,4.23
2017-11-17T13:44:58.577Z,4.17
2017-11-17T13:47:26.840Z,5.63
2017-11-17T13:49:55.109Z,5.10
2017-11-17T13:52:22.600Z,3.40
2017-11-17T13:54:50.072Z,3.73
2017-11-17T13:57:17.593Z,3.50
2017-11-17T13:59:45.837Z,4.17
2017-11-17T14:02:13.317Z,3.90
2017-11-17T14:04:40.793Z,3.70
2017-11-17T14:07:09.044Z,4.17
2017-11-17T14:09:36.553Z,4.43
2017-11-17T14:12:04.029Z,4.07
2017-11-17T14:14:31.527Z,4.67
2017-11-17T14:16:59.017Z,3.93
2017-11-17T14:19:26.506Z,4.47
2017-11-17T14:21:54.010Z,4.10
2017-11-17T14:24:22.250Z,3.50
2017-11-17T14:26:49.733Z,3.33
2017-11-17T14:29:17.972Z,3.50
2017-11-17T14:31:45.469Z,4.10
2017-11-17T14:34:13.713Z,3.30
2017-11-17T14:36:41.187Z,3.50
2017-11-17T14:39:08.667Z,3.73
2017-11-17T14:41:36.953Z,3.50
2017-11-17T14:44:05.208Z,3.40
2017-11-17T14:46:32.676Z,3.33
2017-11-17T14:49:00.943Z,3.47
2017-11-17T14:51:29.198Z,3.37
2017-11-17T14:53:56.686Z,3.83
2017-11-17T14:56:24.953Z,3.27
2017-11-17T14:58:52.420Z,3.87
2017-11-17T15:01:20.673Z,3.40
2017-11-17T15:03:49.060Z,3.80
2017-11-17T15:06:16.644Z,3.40
2017-11-17T15:08:44.915Z,3.77
2017-11-17T15:11:13.156Z,4.07
2017-11-17T15:13:40.777Z,4.10
2017-11-17T15:16:08.313Z,4.10
2017-11-17T15:18:36.556Z,4.13
2017-11-17T15:21:04.049Z,4.50
2017-11-17T15:23:31.617Z,4.23
2017-11-17T15:25:59.308Z,3.90
2017-11-17T15:28:26.845Z,4.37
2017-11-17T15:30:54.372Z,4.43
2017-11-17T15:33:22.663Z,4.40
2017-11-17T15:35:50.914Z,4.63
2017-11-17T15:38:18.512Z,4.50
2017-11-17T15:40:46.053Z,4.70
2017-11-17T15:43:14.330Z,4.50
2017-11-17T15:45:42.583Z,4.50
2017-11-17T15:48:10.864Z,6.43
2017-11-17T15:50:38.425Z,6.10
2017-11-17T15:53:06.678Z,5.93
2017-11-17T15:55:34.160Z,4.50
2017-11-17T15:58:01.733Z,5.20
2017-11-17T16:00:29.989Z,5.00
2017-11-17T16:02:57.486Z,5.73
2017-11-17T16:05:24.986Z,6.73
2017-11-17T16:07:52.480Z,5.10
2017-11-17T16:10:20.757Z,5.50
2017-11-17T16:12:49.037Z,6.00
2017-11-17T16:15:17.280Z,5.80
2017-11-17T16:17:44.865Z,6.60
2017-11-17T16:20:13.177Z,6.23
2017-11-17T16:22:40.651Z,6.50
2017-11-17T16:25:08.164Z,6.93
2017-11-17T16:27:36.454Z,7.33
2017-11-17T16:30:03.949Z,8.23
2017-11-17T16:32:31.552Z,7.50
2017-11-17T16:34:59.832Z,7.77
2017-11-17T16:37:28.293Z,8.23
2017-11-17T16:39:56.364Z,8.77
2017-11-17T16:42:23.984Z,8.60
2017-11-17T16:44:51.495Z,8.83
2017-11-17T16:47:19.809Z,9.30
2017-11-17T16:49:47.434Z,9.10
2017-11-17T16:52:15.697Z,9.07
2017-11-17T16:54:43.276Z,9.70
2017-11-17T16:57:11.599Z,10.33
2017-11-17T16:59:39.316Z,10.90
2017-11-17T17:02:07.560Z,10.43
2017-11-17T17:04:35.101Z,11.97
2017-11-17T17:07:02.602Z,11.17
2017-11-17T17:09:30.901Z,11.13
2017-11-17T17:11:58.421Z,11.53
2017-11-17T17:14:26.044Z,11.67
2017-11-17T17:16:53.627Z,11.03
2017-11-17T17:19:21.152Z,12.00
2017-11-17T17:21:48.633Z,13.43
2017-11-17T17:24:16.135Z,20.07
2017-11-17T17:26:45.604Z,13.17
2017-11-17T17:29:13.127Z,10.90
2017-11-17T17:31:40.768Z,9.83
2017-11-17T17:34:09.045Z,9.70
2017-11-17T17:36:37.307Z,9.67
2017-11-17T17:39:05.554Z,9.80
2017-11-17T17:41:33.154Z,10.80
2017-11-17T17:44:01.429Z,9.23
2017-11-17T17:46:29.709Z,9.70
2017-11-17T17:48:57.968Z,9.90
2017-11-17T17:51:25.486Z,9.80
2017-11-17T17:53:52.976Z,9.83
2017-11-17T17:56:20.588Z,9.27
2017-11-17T17:58:48.084Z,9.90
2017-11-17T18:01:15.588Z,9.10
2017-11-17T18:03:43.064Z,9.40
2017-11-17T18:06:10.553Z,9.97
2017-11-17T18:08:38.080Z,10.43
2017-11-17T18:11:05.572Z,9.93
2017-11-17T18:13:33.098Z,11.33
2017-11-17T18:16:00.595Z,14.40
2017-11-17T18:18:28.850Z,13.60
2017-11-17T18:20:56.361Z,10.47
2017-11-17T18:23:24.611Z,11.10
2017-11-17T18:25:52.982Z,10.13
2017-11-17T18:28:20.516Z,10.20
2017-11-17T18:30:47.960Z,9.70
2017-11-17T18:33:15.506Z,9.03
2017-11-17T18:35:43.867Z,8.93
2017-11-17T18:38:12.172Z,10.00
2017-11-17T18:40:39.665Z,10.97
2017-11-17T18:43:07.268Z,9.80
2017-11-17T18:45:34.771Z,10.30
2017-11-17T18:48:02.258Z,9.07
2017-11-17T18:50:30.572Z,9.23
2017-11-17T18:53:01.773Z,9.43
2017-11-17T18:55:30.050Z,10.33
2017-11-17T18:57:58.330Z,10.47
2017-11-17T19:00:25.876Z,10.23
2017-11-17T19:02:53.382Z,9.60
2017-11-17T19:05:21.085Z,10.43
2017-11-17T19:07:49.404Z,10.40
2017-11-17T19:10:16.996Z,9.33
2017-11-17T19:12:44.530Z,9.00
2017-11-17T19:15:12.813Z,9.87
2017-11-17T19:17:40.310Z,9.90
2017-11-17T19:20:07.856Z,10.37
2017-11-17T19:22:35.364Z,9.97
2017-11-17T19:25:03.634Z,12.88
2017-11-17T19:27:31.895Z,10.25
2017-11-17T19:29:59.494Z,9.27
2017-11-17T19:32:27.000Z,9.07
2017-11-17T19:34:54.510Z,9.20
2017-11-17T19:37:22.789Z,8.23
2017-11-17T19:39:50.285Z,9.07
2017-11-17T19:42:17.790Z,9.30
2017-11-17T19:44:46.148Z,9.27
2017-11-17T19:47:13.659Z,9.73
2017-11-17T19:49:41.173Z,10.00
2017-11-17T19:52:09.434Z,9.70
2017-11-17T19:54:36.970Z,10.03
2017-11-17T19:57:04.471Z,9.27
2017-11-17T19:59:31.966Z,9.07
2017-11-17T20:01:59.474Z,9.17
2017-11-17T20:04:26.973Z,8.93
2017-11-17T20:06:54.525Z,9.30
2017-11-17T20:09:22.804Z,9.47
2017-11-17T20:11:50.354Z,13.97
2017-11-17T20:14:18.638Z,10.83
2017-11-17T20:16:46.133Z,11.57
2017-11-17T20:19:13.678Z,11.20
2017-11-17T20:21:41.167Z,9.57
2017-11-17T20:24:08.670Z,8.93
2017-11-17T20:26:36.159Z,8.95
2017-11-17T20:29:03.683Z,8.82
2017-11-17T20:31:31.229Z,8.68
2017-11-17T20:33:59.513Z,8.93
2017-11-17T20:36:27.809Z,8.75
2017-11-17T20:38:55.349Z,9.52
2017-11-17T20:41:23.617Z,10.02
2017-11-17T20:43:51.918Z,8.97
2017-11-17T20:46:20.202Z,9.65
2017-11-17T20:48:47.709Z,9.88
2017-11-17T20:51:15.195Z,10.05
2017-11-17T20:53:43.533Z,8.83
2017-11-17T20:56:11.025Z,10.77
2017-11-17T20:58:39.365Z,11.00
2017-11-17T21:01:06.884Z,9.40
2017-11-17T21:03:34.488Z,9.68
2017-11-17T21:06:02.000Z,10.45
2017-11-17T21:08:29.548Z,13.23
2017-11-17T21:10:57.809Z,9.77
2017-11-17T21:13:26.069Z,9.57
2017-11-17T21:15:53.625Z,8.95
2017-11-17T21:18:21.203Z,9.13
2017-11-17T21:20:49.496Z,8.45
2017-11-17T21:23:17.024Z,9.10
2017-11-17T21:25:44.577Z,9.07
2017-11-17T21:28:13.614Z,8.48
2017-11-17T21:30:41.092Z,9.52
2017-11-17T21:33:08.627Z,9.65
2017-11-17T21:35:36.134Z,9.27
2017-11-17T21:38:03.653Z,10.18
2017-11-17T21:40:31.159Z,9.77
2017-11-17T21:42:58.683Z,9.05
2017-11-17T21:45:26.208Z,11.93
2017-11-17T21:47:54.489Z,10.63
2017-11-17T21:50:22.924Z,10.32
2017-11-17T21:52:50.445Z,9.73
2017-11-17T21:55:17.941Z,10.18
2017-11-17T21:57:45.514Z,10.95
2017-11-17T22:00:13.017Z,11.40
2017-11-17T22:02:40.516Z,11.45
2017-11-17T22:05:08.226Z,10.13
2017-11-17T22:07:36.562Z,10.73
2017-11-17T22:10:04.095Z,10.15
2017-11-17T22:12:31.584Z,9.45
2017-11-17T22:14:59.217Z,9.82
2017-11-17T22:17:26.756Z,8.88
2017-11-17T22:19:54.251Z,9.25
2017-11-17T22:22:21.766Z,9.60
2017-11-17T22:24:49.268Z,10.48
2017-11-17T22:27:16.782Z,9.02
2017-11-17T22:29:44.304Z,9.38
2017-11-17T22:32:11.784Z,9.25
2017-11-17T22:34:40.065Z,10.77
2017-11-17T22:37:08.341Z,10.10
2017-11-17T22:39:36.595Z,10.65
2017-11-17T22:42:04.097Z,10.90
2017-11-17T22:44:31.636Z,10.63
2017-11-17T22:46:59.904Z,11.25
2017-11-17T22:49:28.160Z,10.85
2017-11-17T22:51:55.748Z,10.10
2017-11-17T22:54:23.243Z,9.82
2017-11-17T22:56:50.736Z,10.50
2017-11-17T22:59:18.322Z,9.70
2017-11-17T23:01:46.594Z,10.43
2017-11-17T23:04:14.129Z,9.48
2017-11-17T23:06:41.620Z,10.40
2017-11-17T23:09:09.905Z,9.85
2017-11-17T23:11:37.401Z,11.65
2017-11-17T23:14:04.919Z,11.68
2017-11-17T23:16:32.445Z,12.20
2017-11-17T23:19:00.054Z,11.70
2017-11-17T23:21:27.593Z,10.30
2017-11-17T23:23:55.150Z,11.60
2017-11-17T23:26:23.425Z,10.13
2017-11-17T23:28:50.976Z,10.15
2017-11-17T23:31:18.506Z,10.10
2017-11-17T23:33:46.108Z,11.23
2017-11-17T23:36:13.677Z,10.88
2017-11-17T23:38:41.165Z,10.80
2017-11-17T23:41:08.704Z,10.70
2017-11-17T23:43:36.190Z,11.12
2017-11-17T23:46:03.736Z,12.15
2017-11-17T23:48:31.252Z,12.18
2017-11-17T23:50:59.501Z,11.52
2017-11-17T23:53:27.118Z,11.82
2017-11-17T23:55:54.616Z,12.20
2017-11-17T23:58:22.135Z,12.40
